KAIO

Atlantic Municipal Airport

Atlantic, Iowa, USA
METAR KAIO 190115Z AUTO 19007KT 10SM CLR M08/M11 A3015 RMK AO2
Observed Flight Rules
Nov-19 @ 01:15 UTC (18 minutes ago) Visual Flight Rules
Wind Visibility Clouds
190° at 7 knots 10 miles
  • Clear skies
Temperatures Readings
Current -8°C / 18°F
Dewpoint -11°C / 12°F
Humidity 79%
Altimeter 30.15" Hg
Pressure 1021 hPa
Elevation 360
METAR KAIO 190115Z AUTO 19007KT 10SM CLR M08/M11 A3015 RMK AO2
Observed Flight Rules
Nov-19 @ 01:15 UTC
(18 minutes ago)
VFR
Wind Visibility
190° at 7 knots 10 miles
Clouds
  • Clear skies
Temperature Dewpoint
-8°C / 18°F -11°C / 12°F
Humidity Altimeter Pressure
79% 30.15" Hg 1021 hPa